Acworth, Georgia
Current Conditions -  °F | °C
As of 8:47 AM on Friday 31 Oct 2014 (Local Time) from KRYY Reporting Station
Broken Clouds Broken Clouds  
Wind Chill: 39°   Ceiling: 11000
Heat Index: 45°   Visibility: 10mi
Dew Point: 37°   Wind: 12mph
Humidity: 76%   Direction: 320°NW
Pressure: 29.97"   Gusts: NA
Location:  34.06°N, 84.68°W
Report Text: KRYY 311247Z 32010KT 10SM BKN110 07/03 A2997
Loading
Personal Weather Stations






























Interactive Weather Map
Tropical Storm Tracking
New forecast layout! Learn more

10-Day Weather Forecast

Advertisements
Track Severe Weather on mobile